sensor_id;sensor_type;location;lat;lon;timestamp;pressure;altitude;pressure_sealevel;temperature;humidity
62152;BME280;48139;47.474;19.034;2022-07-04T03:49:50;100371.16;;;22.22;55.22
62152;BME280;48139;47.474;19.034;2022-07-04T03:52:52;100371.16;;;22.22;55.22
62152;BME280;48139;47.474;19.034;2022-07-04T03:55:55;100368.28;;;21.77;56.44
62152;BME280;48139;47.474;19.034;2022-07-04T03:58:57;100363.50;;;21.80;56.58
62152;BME280;48139;47.474;19.034;2022-07-04T04:02:00;100371.50;;;21.90;56.75
62152;BME280;48139;47.474;19.034;2022-07-04T04:05:03;100366.16;;;21.99;56.54
62152;BME280;48139;47.474;19.034;2022-07-04T04:08:25;100369.06;;;22.06;56.53
62152;BME280;48139;47.474;19.034;2022-07-04T04:11:28;100370.44;;;22.20;56.44
62152;BME280;48139;47.474;19.034;2022-07-04T04:14:30;100372.37;;;22.27;56.64
62152;BME280;48139;47.474;19.034;2022-07-04T04:17:33;100377.38;;;22.40;56.75
62152;BME280;48139;47.474;19.034;2022-07-04T04:20:35;100378.41;;;22.57;56.43
62152;BME280;48139;47.474;19.034;2022-07-04T04:23:38;100378.44;;;22.84;55.61
62152;BME280;48139;47.474;19.034;2022-07-04T04:26:40;100374.19;;;23.09;54.92
62152;BME280;48139;47.474;19.034;2022-07-04T04:29:43;100378.09;;;23.32;54.45
62152;BME280;48139;47.474;19.034;2022-07-04T04:32:46;100382.59;;;23.49;54.19
62152;BME280;48139;47.474;19.034;2022-07-04T04:35:48;100385.59;;;23.64;54.02
62152;BME280;48139;47.474;19.034;2022-07-04T04:38:51;100383.56;;;23.84;54.01
62152;BME280;48139;47.474;19.034;2022-07-04T04:41:53;100380.63;;;23.95;53.17
62152;BME280;48139;47.474;19.034;2022-07-04T04:44:56;100381.03;;;24.08;53.54
62152;BME280;48139;47.474;19.034;2022-07-04T04:47:59;100381.62;;;24.20;52.43
62152;BME280;48139;47.474;19.034;2022-07-04T04:51:01;100373.50;;;24.29;52.94
62152;BME280;48139;47.474;19.034;2022-07-04T04:54:10;100373.41;;;24.47;52.41
62152;BME280;48139;47.474;19.034;2022-07-04T04:57:13;100365.38;;;24.55;51.62
62152;BME280;48139;47.474;19.034;2022-07-04T05:00:16;100365.87;;;24.50;51.64
62152;BME280;48139;47.474;19.034;2022-07-04T05:03:18;100364.25;;;24.58;48.21
62152;BME280;48139;47.474;19.034;2022-07-04T05:06:21;100360.47;;;24.84;48.33
62152;BME280;48139;47.474;19.034;2022-07-04T05:09:23;100359.06;;;25.14;46.57
62152;BME280;48139;47.474;19.034;2022-07-04T05:12:26;100365.28;;;25.63;43.75
62152;BME280;48139;47.474;19.034;2022-07-04T05:15:36;100364.41;;;25.95;43.17
62152;BME280;48139;47.474;19.034;2022-07-04T05:18:38;100368.87;;;26.19;42.27
62152;BME280;48139;47.474;19.034;2022-07-04T05:21:41;100371.38;;;26.37;42.28
62152;BME280;48139;47.474;19.034;2022-07-04T05:24:43;100370.47;;;26.53;41.38
62152;BME280;48139;47.474;19.034;2022-07-04T05:27:46;100379.81;;;26.65;41.36
62152;BME280;48139;47.474;19.034;2022-07-04T05:30:49;100384.94;;;26.82;40.94
62152;BME280;48139;47.474;19.034;2022-07-04T05:33:52;100382.09;;;26.92;40.68
62152;BME280;48139;47.474;19.034;2022-07-04T05:36:55;100384.81;;;27.07;40.26
62152;BME280;48139;47.474;19.034;2022-07-04T05:39:57;100386.59;;;27.22;38.63
62152;BME280;48139;47.474;19.034;2022-07-04T05:43:00;100383.31;;;27.35;38.15
62152;BME280;48139;47.474;19.034;2022-07-04T05:46:02;100386.56;;;27.45;37.43
62152;BME280;48139;47.474;19.034;2022-07-04T05:49:06;100377.47;;;27.54;37.37
62152;BME280;48139;47.474;19.034;2022-07-04T05:52:08;100389.25;;;27.68;36.79
62152;BME280;48139;47.474;19.034;2022-07-04T05:55:11;100389.19;;;27.76;36.38
62152;BME280;48139;47.474;19.034;2022-07-04T05:58:13;100388.12;;;27.85;35.40
62152;BME280;48139;47.474;19.034;2022-07-04T06:01:16;100389.69;;;27.94;35.47
62152;BME280;48139;47.474;19.034;2022-07-04T06:04:19;100379.78;;;28.09;35.12
62152;BME280;48139;47.474;19.034;2022-07-04T06:07:21;100387.78;;;28.18;35.20
62152;BME280;48139;47.474;19.034;2022-07-04T06:10:24;100376.37;;;28.30;34.60
62152;BME280;48139;47.474;19.034;2022-07-04T06:13:26;100394.75;;;28.56;34.12
62152;BME280;48139;47.474;19.034;2022-07-04T06:16:30;100394.09;;;28.69;33.43
62152;BME280;48139;47.474;19.034;2022-07-04T06:19:39;100391.56;;;28.67;33.15
62152;BME280;48139;47.474;19.034;2022-07-04T06:22:48;100396.16;;;28.67;33.51
62152;BME280;48139;47.474;19.034;2022-07-04T06:25:51;100385.81;;;28.70;33.28
62152;BME280;48139;47.474;19.034;2022-07-04T06:28:53;100383.13;;;28.85;33.48
62152;BME280;48139;47.474;19.034;2022-07-04T06:31:56;100383.28;;;28.98;33.56
62152;BME280;48139;47.474;19.034;2022-07-04T06:34:59;100392.81;;;29.15;33.17
62152;BME280;48139;47.474;19.034;2022-07-04T06:38:28;100387.06;;;29.25;32.62
62152;BME280;48139;47.474;19.034;2022-07-04T06:41:31;100392.66;;;29.23;32.77
62152;BME280;48139;47.474;19.034;2022-07-04T06:44:34;100401.47;;;29.32;32.37
62152;BME280;48139;47.474;19.034;2022-07-04T06:47:36;100385.87;;;29.49;32.71
62152;BME280;48139;47.474;19.034;2022-07-04T06:50:39;100382.94;;;29.65;32.33
62152;BME280;48139;47.474;19.034;2022-07-04T06:53:42;100382.75;;;29.94;32.01
62152;BME280;48139;47.474;19.034;2022-07-04T06:56:45;100396.50;;;30.27;31.64
62152;BME280;48139;47.474;19.034;2022-07-04T06:59:48;100397.53;;;30.26;31.61
62152;BME280;48139;47.474;19.034;2022-07-04T07:02:50;100395.69;;;30.33;31.85
62152;BME280;48139;47.474;19.034;2022-07-04T07:05:53;100388.66;;;30.39;31.53
62152;BME280;48139;47.474;19.034;2022-07-04T07:09:02;100391.31;;;30.32;31.14
62152;BME280;48139;47.474;19.034;2022-07-04T07:12:05;100390.16;;;30.14;31.39
62152;BME280;48139;47.474;19.034;2022-07-04T07:15:08;100400.03;;;30.28;31.51
62152;BME280;48139;47.474;19.034;2022-07-04T07:18:11;100387.22;;;30.43;31.33
62152;BME280;48139;47.474;19.034;2022-07-04T07:21:13;100391.00;;;30.49;31.24
62152;BME280;48139;47.474;19.034;2022-07-04T07:24:16;100389.41;;;30.54;30.82
62152;BME280;48139;47.474;19.034;2022-07-04T07:27:18;100379.81;;;30.52;30.45
62152;BME280;48139;47.474;19.034;2022-07-04T07:30:21;100392.56;;;30.64;30.31
62152;BME280;48139;47.474;19.034;2022-07-04T07:33:23;100391.91;;;30.62;30.09
62152;BME280;48139;47.474;19.034;2022-07-04T07:36:26;100384.66;;;30.69;30.34
62152;BME280;48139;47.474;19.034;2022-07-04T07:39:35;100385.34;;;30.84;30.18
62152;BME280;48139;47.474;19.034;2022-07-04T07:42:50;100391.00;;;30.90;29.03
62152;BME280;48139;47.474;19.034;2022-07-04T07:45:52;100382.69;;;30.98;28.97
62152;BME280;48139;47.474;19.034;2022-07-04T07:48:55;100392.13;;;31.08;28.65
62152;BME280;48139;47.474;19.034;2022-07-04T07:51:57;100394.41;;;31.18;28.15
62152;BME280;48139;47.474;19.034;2022-07-04T07:55:00;100389.25;;;31.23;28.50
62152;BME280;48139;47.474;19.034;2022-07-04T07:58:04;100381.75;;;31.32;28.55
62152;BME280;48139;47.474;19.034;2022-07-04T08:01:06;100385.09;;;31.40;27.83
62152;BME280;48139;47.474;19.034;2022-07-04T08:04:09;100393.84;;;31.55;27.77
62152;BME280;48139;47.474;19.034;2022-07-04T08:07:30;100389.47;;;31.35;27.94
62152;BME280;48139;47.474;19.034;2022-07-04T08:10:33;100378.22;;;31.44;27.20
62152;BME280;48139;47.474;19.034;2022-07-04T08:13:35;100375.50;;;31.51;26.72
62152;BME280;48139;47.474;19.034;2022-07-04T08:16:38;100372.66;;;31.59;26.42
62152;BME280;48139;47.474;19.034;2022-07-04T08:19:57;100371.12;;;31.43;26.48
62152;BME280;48139;47.474;19.034;2022-07-04T08:23:00;100372.44;;;31.60;26.80
62152;BME280;48139;47.474;19.034;2022-07-04T08:26:02;100375.72;;;31.56;26.76
62152;BME280;48139;47.474;19.034;2022-07-04T08:29:05;100367.81;;;31.81;26.54
62152;BME280;48139;47.474;19.034;2022-07-04T08:32:08;100359.84;;;32.12;25.94
62152;BME280;48139;47.474;19.034;2022-07-04T08:35:10;100365.28;;;32.12;26.26
62152;BME280;48139;47.474;19.034;2022-07-04T08:38:13;100366.56;;;32.23;26.51
62152;BME280;48139;47.474;19.034;2022-07-04T08:41:16;100373.22;;;32.14;26.90
62152;BME280;48139;47.474;19.034;2022-07-04T08:44:27;100367.16;;;32.05;26.67
62152;BME280;48139;47.474;19.034;2022-07-04T08:47:36;100365.53;;;31.84;27.23
62152;BME280;48139;47.474;19.034;2022-07-04T08:50:47;100365.94;;;32.14;26.97
62152;BME280;48139;47.474;19.034;2022-07-04T08:53:56;100375.28;;;32.25;26.99
62152;BME280;48139;47.474;19.034;2022-07-04T08:56:59;100366.28;;;32.31;26.08
62152;BME280;48139;47.474;19.034;2022-07-04T09:00:20;100365.19;;;32.52;25.81
62152;BME280;48139;47.474;19.034;2022-07-04T09:03:24;100369.37;;;32.54;25.39
62152;BME280;48139;47.474;19.034;2022-07-04T09:06:28;100368.12;;;32.50;25.22
62152;BME280;48139;47.474;19.034;2022-07-04T09:09:32;100365.81;;;32.54;25.00
62152;BME280;48139;47.474;19.034;2022-07-04T09:12:35;100356.00;;;32.59;24.91
62152;BME280;48139;47.474;19.034;2022-07-04T09:15:58;100363.63;;;32.82;23.98
62152;BME280;48139;47.474;19.034;2022-07-04T09:19:02;100360.62;;;33.35;23.65
62152;BME280;48139;47.474;19.034;2022-07-04T09:22:09;100359.72;;;33.66;23.71
62152;BME280;48139;47.474;19.034;2022-07-04T09:25:17;100359.91;;;33.46;23.81
62152;BME280;48139;47.474;19.034;2022-07-04T09:28:27;100365.81;;;33.86;23.22
62152;BME280;48139;47.474;19.034;2022-07-04T09:31:31;100358.28;;;33.88;23.49
62152;BME280;48139;47.474;19.034;2022-07-04T09:34:34;100368.22;;;33.51;23.10
62152;BME280;48139;47.474;19.034;2022-07-04T09:37:42;100355.19;;;32.97;23.29
62152;BME280;48139;47.474;19.034;2022-07-04T09:40:52;100359.72;;;33.09;23.44
62152;BME280;48139;47.474;19.034;2022-07-04T09:44:16;100364.22;;;32.91;24.09
62152;BME280;48139;47.474;19.034;2022-07-04T09:47:23;100355.78;;;32.99;24.72
62152;BME280;48139;47.474;19.034;2022-07-04T09:50:27;100349.84;;;33.15;24.98
62152;BME280;48139;47.474;19.034;2022-07-04T09:53:30;100344.38;;;33.28;25.17
62152;BME280;48139;47.474;19.034;2022-07-04T09:56:53;100344.44;;;33.71;24.27
62152;BME280;48139;47.474;19.034;2022-07-04T09:59:56;100344.53;;;34.26;24.06
62152;BME280;48139;47.474;19.034;2022-07-04T10:06:25;100329.63;;;33.92;23.40
62152;BME280;48139;47.474;19.034;2022-07-04T10:09:28;100341.84;;;34.19;23.00
62152;BME280;48139;47.474;19.034;2022-07-04T10:12:33;100330.31;;;34.24;22.76
62152;BME280;48139;47.474;19.034;2022-07-04T10:15:42;100330.47;;;34.47;22.68
62152;BME280;48139;47.474;19.034;2022-07-04T10:18:48;100325.13;;;34.40;22.57
62152;BME280;48139;47.474;19.034;2022-07-04T10:21:51;100326.91;;;34.47;22.23
62152;BME280;48139;47.474;19.034;2022-07-04T10:24:56;100319.41;;;34.60;22.58
62152;BME280;48139;47.474;19.034;2022-07-04T10:27:58;100316.13;;;34.40;22.62
62152;BME280;48139;47.474;19.034;2022-07-04T10:31:01;100308.25;;;34.50;23.44
62152;BME280;48139;47.474;19.034;2022-07-04T10:34:07;100299.34;;;34.91;26.04
62152;BME280;48139;47.474;19.034;2022-07-04T10:37:10;100299.53;;;34.60;25.95
62152;BME280;48139;47.474;19.034;2022-07-04T10:40:40;100294.09;;;34.78;22.06
62152;BME280;48139;47.474;19.034;2022-07-04T10:43:57;100284.50;;;34.87;21.52
62152;BME280;48139;47.474;19.034;2022-07-04T10:47:03;100284.84;;;34.61;21.33
62152;BME280;48139;47.474;19.034;2022-07-04T10:50:06;100295.00;;;34.72;23.22
62152;BME280;48139;47.474;19.034;2022-07-04T10:53:10;100286.81;;;35.02;21.81
62152;BME280;48139;47.474;19.034;2022-07-04T10:59:29;100282.78;;;35.04;20.91
62152;BME280;48139;47.474;19.034;2022-07-04T11:02:33;100270.81;;;35.17;20.91
62152;BME280;48139;47.474;19.034;2022-07-04T11:05:36;100276.97;;;35.01;21.85
62152;BME280;48139;47.474;19.034;2022-07-04T11:09:13;100263.75;;;34.45;21.27
62152;BME280;48139;47.474;19.034;2022-07-04T11:12:19;100264.37;;;34.88;21.75
62152;BME280;48139;47.474;19.034;2022-07-04T11:18:27;100268.72;;;35.19;20.92
62152;BME280;48139;47.474;19.034;2022-07-04T11:21:31;100275.25;;;34.76;20.28
62152;BME280;48139;47.474;19.034;2022-07-04T11:24:36;100266.06;;;34.59;20.29
62152;BME280;48139;47.474;19.034;2022-07-04T11:27:39;100258.94;;;34.88;19.80
62152;BME280;48139;47.474;19.034;2022-07-04T11:30:48;100240.59;;;34.84;20.26
62152;BME280;48139;47.474;19.034;2022-07-04T11:33:54;100243.34;;;34.65;20.67
62152;BME280;48139;47.474;19.034;2022-07-04T11:36:57;100234.31;;;34.83;20.12
62152;BME280;48139;47.474;19.034;2022-07-04T11:40:03;100226.28;;;35.00;20.57
62152;BME280;48139;47.474;19.034;2022-07-04T11:43:24;100228.91;;;35.06;19.54
62152;BME280;48139;47.474;19.034;2022-07-04T11:46:45;100222.06;;;35.15;19.82
62152;BME280;48139;47.474;19.034;2022-07-04T11:49:54;100215.28;;;35.18;20.21
62152;BME280;48139;47.474;19.034;2022-07-04T11:52:57;100208.31;;;35.57;19.39
62152;BME280;48139;47.474;19.034;2022-07-04T11:56:19;100221.75;;;35.47;19.88
62152;BME280;48139;47.474;19.034;2022-07-04T11:59:22;100214.56;;;34.99;20.42
62152;BME280;48139;47.474;19.034;2022-07-04T12:02:26;100215.19;;;35.01;19.92
62152;BME280;48139;47.474;19.034;2022-07-04T12:05:29;100209.75;;;35.36;19.66
62152;BME280;48139;47.474;19.034;2022-07-04T12:08:33;100207.03;;;35.71;18.52
62152;BME280;48139;47.474;19.034;2022-07-04T12:11:58;100203.09;;;35.90;18.84
62152;BME280;48139;47.474;19.034;2022-07-04T12:15:06;100214.34;;;35.82;18.82
62152;BME280;48139;47.474;19.034;2022-07-04T12:18:27;100207.84;;;35.83;18.69
62152;BME280;48139;47.474;19.034;2022-07-04T12:21:31;100200.03;;;35.75;19.61
62152;BME280;48139;47.474;19.034;2022-07-04T12:24:42;100205.75;;;35.39;19.79
62152;BME280;48139;47.474;19.034;2022-07-04T12:27:51;100203.81;;;35.04;20.08
62152;BME280;48139;47.474;19.034;2022-07-04T12:30:58;100200.66;;;35.31;18.91
62152;BME280;48139;47.474;19.034;2022-07-04T12:34:01;100203.50;;;35.71;19.21
62152;BME280;48139;47.474;19.034;2022-07-04T12:37:08;100202.03;;;35.80;17.64
62152;BME280;48139;47.474;19.034;2022-07-04T12:40:10;100202.91;;;35.45;18.30
62152;BME280;48139;47.474;19.034;2022-07-04T12:43:13;100196.84;;;35.32;19.05
62152;BME280;48139;47.474;19.034;2022-07-04T12:46:32;100193.16;;;35.49;19.55
62152;BME280;48139;47.474;19.034;2022-07-04T12:49:46;100192.78;;;35.81;18.81
62152;BME280;48139;47.474;19.034;2022-07-04T12:52:50;100206.09;;;35.77;18.30
62152;BME280;48139;47.474;19.034;2022-07-04T12:55:53;100193.56;;;35.41;19.01
62152;BME280;48139;47.474;19.034;2022-07-04T12:58:55;100194.81;;;35.15;19.39
62152;BME280;48139;47.474;19.034;2022-07-04T13:01:58;100197.28;;;35.17;19.58
62152;BME280;48139;47.474;19.034;2022-07-04T13:05:01;100183.34;;;35.13;19.32
62152;BME280;48139;47.474;19.034;2022-07-04T13:08:04;100186.88;;;35.14;18.41
62152;BME280;48139;47.474;19.034;2022-07-04T13:11:06;100186.66;;;35.50;18.09
62152;BME280;48139;47.474;19.034;2022-07-04T13:14:27;100174.22;;;35.31;17.82
62152;BME280;48139;47.474;19.034;2022-07-04T13:17:30;100177.31;;;35.35;18.31
62152;BME280;48139;47.474;19.034;2022-07-04T13:20:34;100173.50;;;35.59;18.16
62152;BME280;48139;47.474;19.034;2022-07-04T13:23:43;100172.06;;;35.56;18.68
62152;BME280;48139;47.474;19.034;2022-07-04T13:26:54;100174.19;;;35.78;18.10
62152;BME280;48139;47.474;19.034;2022-07-04T13:29:56;100173.59;;;35.64;18.51
62152;BME280;48139;47.474;19.034;2022-07-04T13:32:59;100183.13;;;35.27;18.43
62152;BME280;48139;47.474;19.034;2022-07-04T13:36:02;100179.66;;;35.08;18.69
62152;BME280;48139;47.474;19.034;2022-07-04T13:39:05;100172.34;;;35.20;18.69
62152;BME280;48139;47.474;19.034;2022-07-04T13:42:08;100169.37;;;35.33;18.61
62152;BME280;48139;47.474;19.034;2022-07-04T13:45:10;100167.72;;;35.32;18.55
62152;BME280;48139;47.474;19.034;2022-07-04T13:48:15;100154.78;;;35.51;18.76
62152;BME280;48139;47.474;19.034;2022-07-04T13:51:19;100165.09;;;35.61;18.33
62152;BME280;48139;47.474;19.034;2022-07-04T13:54:23;100165.09;;;35.49;18.94
62152;BME280;48139;47.474;19.034;2022-07-04T13:57:26;100166.88;;;34.97;20.06
62152;BME280;48139;47.474;19.034;2022-07-04T14:00:36;100156.09;;;35.02;21.89
62152;BME280;48139;47.474;19.034;2022-07-04T14:03:40;100150.28;;;34.75;19.96
62152;BME280;48139;47.474;19.034;2022-07-04T14:06:42;100155.94;;;34.73;19.92
62152;BME280;48139;47.474;19.034;2022-07-04T14:09:45;100142.59;;;34.72;19.44
62152;BME280;48139;47.474;19.034;2022-07-04T14:12:48;100137.00;;;34.25;20.73
62152;BME280;48139;47.474;19.034;2022-07-04T14:15:57;100149.03;;;34.48;20.37
62152;BME280;48139;47.474;19.034;2022-07-04T14:19:00;100150.44;;;34.20;20.44
62152;BME280;48139;47.474;19.034;2022-07-04T14:22:03;100144.00;;;34.33;20.78
62152;BME280;48139;47.474;19.034;2022-07-04T14:25:09;100137.38;;;34.70;20.43
62152;BME280;48139;47.474;19.034;2022-07-04T14:28:11;100139.69;;;34.55;21.27
62152;BME280;48139;47.474;19.034;2022-07-04T14:31:14;100141.72;;;34.60;20.17
62152;BME280;48139;47.474;19.034;2022-07-04T14:34:25;100145.00;;;34.50;20.38
62152;BME280;48139;47.474;19.034;2022-07-04T14:37:28;100135.44;;;34.48;20.60
62152;BME280;48139;47.474;19.034;2022-07-04T14:40:33;100131.22;;;34.75;20.90
62152;BME280;48139;47.474;19.034;2022-07-04T14:43:38;100136.66;;;34.75;21.08
62152;BME280;48139;47.474;19.034;2022-07-04T14:46:43;100122.56;;;34.66;21.15
62152;BME280;48139;47.474;19.034;2022-07-04T14:49:46;100137.69;;;34.62;20.78
62152;BME280;48139;47.474;19.034;2022-07-04T14:52:50;100133.59;;;34.71;20.58
62152;BME280;48139;47.474;19.034;2022-07-04T14:55:52;100128.91;;;34.49;20.47
62152;BME280;48139;47.474;19.034;2022-07-04T14:58:55;100131.44;;;34.73;20.43
62152;BME280;48139;47.474;19.034;2022-07-04T15:01:58;100129.41;;;34.57;19.48
62152;BME280;48139;47.474;19.034;2022-07-04T15:05:04;100124.00;;;34.27;19.86
62152;BME280;48139;47.474;19.034;2022-07-04T15:08:13;100119.84;;;33.95;20.62
62152;BME280;48139;47.474;19.034;2022-07-04T15:11:16;100101.69;;;34.07;23.66
62152;BME280;48139;47.474;19.034;2022-07-04T15:14:22;100109.41;;;34.10;22.39
62152;BME280;48139;47.474;19.034;2022-07-04T15:17:26;100113.97;;;34.28;20.01
62152;BME280;48139;47.474;19.034;2022-07-04T15:20:32;100105.25;;;34.49;19.83
